Terminal Aerodrome Forecast
Issued by NWS

Home | Current Version | Previous Version | Text Only | Print | Product List | Glossary On
Versions: 1 2 3 4 5 6 7 8 9 10 11 12 13 14 15 16
000
FTUS41 KBTV 230500
TAFSLK
TAF
KSLK 230520Z 2306/2406 00000KT 6SM BR SKC WS020/23030KT
     FM231100 23010KT P6SM SCT100
     FM231400 23011G17KT P6SM VCSH BKN040 OVC080
     FM232000 31010KT P6SM SCT035 BKN050
     FM240300 35004KT P6SM SCT025 BKN090=

USA.gov is the U.S. government's official web portal to all federal, state and local government web resources and services.